Site contains unofficial IBTrACS data. Visit the IBTrACS Website to access archived data.

1948 Tropical Cyclone NOT_NAMED (1948080S11156)


IBTrACS version v04r00. Visit IBTrACS website for data access.
Please direct all questions to the IBTrACS Q and A forum

Storm track - Intensity - Wind Radii - Intensity Data - Source Data - All data

Summary Information

Storm ID 1948080S11156
Start Mar 19 23Z
Max Intensity 45 kt (Mar 25 00Z), 990 mb (Mar 24 23Z)
End Mar 27 00Z
ATCF IDs ,SH191948,SH201948
Track status Best track data.

Storm track plot

Map of storm track

Intensity plots

Map of storm track

Radial wind information

No radial wind information for this storm


Position and Intensity Table

BASIN ISO_TIME_________ NATURE LAT LON WMO PRES BOM PRES DS824 WIND DS824 PRES
degrees north degrees east mb mb kts mb
SP 1948-03-19 23:00:00 NR -11.35 155.80 1002 1002
SP 1948-03-20 00:00:00 TS -11.57 155.71 25 1002
SP 03:00:00 TS -11.94 155.53
SP 06:00:00 TS -12.29 155.37
SP 09:00:00 TS -12.66 155.22
SP 11:00:00 TS -12.90 155.12
SP 12:00:00 TS -13.16 154.65
SP 15:00:00 TS -13.68 154.34
SP 18:00:00 TS -14.20 154.20
SP 21:00:00 TS -14.69 154.15
SP 23:00:00 TS -14.93 154.17 1000 1000
SP 1948-03-21 00:00:00 TS -15.04 154.18 30 1000
SP 03:00:00 TS -15.37 154.15
SP 06:00:00 TS -15.67 154.11
SP 09:00:00 TS -15.96 154.10
SP 11:00:00 TS -16.15 154.10
SP 12:00:00 TS -16.24 154.10
SP 15:00:00 TS -16.56 154.10
SP 18:00:00 TS -16.88 154.11
SP 21:00:00 TS -17.19 154.13
SP 23:00:00 TS -17.40 154.14 998 998
SP 1948-03-22 00:00:00 TS -17.52 154.14 35 998
SP 03:00:00 TS -17.90 154.12
SP 06:00:00 TS -18.31 154.09
SP 09:00:00 TS -18.71 154.06
SP 11:00:00 TS -18.99 154.04
SP 12:00:00 TS -19.12 154.02
SP 15:00:00 TS -19.53 153.96
SP 18:00:00 TS -19.93 153.89
SP 21:00:00 TS -20.30 153.83
SP 23:00:00 TS -20.56 153.79 994 994
SP 1948-03-23 00:00:00 TS -20.69 153.77 40 994
SP 03:00:00 TS -21.10 153.72
SP 06:00:00 TS -21.52 153.68
SP 09:00:00 TS -21.92 153.64
SP 11:00:00 TS -22.17 153.63
SP 12:00:00 TS -22.29 153.63
SP 15:00:00 TS -22.63 153.66
SP 16:00:00 TS -22.74 153.67
SP 18:00:00 TS -22.95 153.72
SP 21:00:00 TS -23.24 153.80
SP 23:00:00 TS -23.44 153.88 997 997
SP 1948-03-24 00:00:00 TS -23.54 153.92 35 997
SP 03:00:00 TS -23.91 154.07
SP 06:00:00 TS -24.28 154.24
SP 09:00:00 TS -24.61 154.44
SP 11:00:00 TS -24.81 154.59
SP 12:00:00 TS -24.90 154.67
SP 15:00:00 TS -25.15 154.91
SP 18:00:00 TS -25.38 155.21
SP 21:00:00 TS -25.60 155.61
SP 23:00:00 TS -25.75 155.92 990 990
SP 1948-03-25 00:00:00 TS -25.83 156.11 45 990
SP 03:00:00 TS -26.07 156.65
SP 06:00:00 TS -26.34 157.22
SP 09:00:00 TS -26.63 157.84
SP 11:00:00 TS -26.82 158.26
SP 12:00:00 TS -26.91 158.45
SP 15:00:00 TS -27.10 158.93
SP 18:00:00 TS -27.27 159.40
SP 21:00:00 TS -27.47 159.91
SP 23:00:00 TS -27.64 160.28 998 998
SP 1948-03-26 00:00:00 TS -27.75 160.46
SP 03:00:00 TS -28.23 161.19
SP 06:00:00 TS -28.83 161.97
SP 09:00:00 TS -29.47 162.70
SP 11:00:00 TS -29.92 163.14
SP 12:00:00 TS -30.18 163.36
SP 15:00:00 TS -30.92 164.00
SP 18:00:00 TS -31.73 164.78
SP 21:00:00 TS -32.55 165.73
SP 23:00:00 TS -33.05 166.37
SP 1948-03-27 00:00:00 TS -33.40 167.20

Source Information

Agency Information
USA bsh191948.txt::bsh201948.txt
TOKYO
CMA
HKO
NEWDELHI
REUNION
BOM IDCKMSTM0S.csv:Line=1444:unnamed
NADI
WELLINGTON
DS824 aus_area.dat:158:NOT NAMED
TD9636 cons_worldwide_trop_cyclone_18710101-19891231-006:Line=3290
TD9635
NEUMANN
MLC

All available IBTrACS Data

SEASON BASIN SUBBASIN ISO_TIME_________ NATURE LAT LON WMO PRES WMO AGENCY DIST2LAND LANDFALL IFLAG USA AGENCY USA ATCF_ID USA LAT USA LON USA SSHS BOM LAT BOM LON BOM PRES BOM PRES_METHOD DS824 LAT DS824 LON DS824 STAGE DS824 WIND DS824 PRES TD9636 LAT TD9636 LON TD9636 STAGE STORM SPEED STORM DIR
Year degrees north degrees east mb km km degrees north degrees east 1 degrees north degrees east mb degrees north degrees east kts mb degrees north degrees east kts degrees
1948 SP EA 1948-03-19 23:00:00 NR -11.35 155.80 1002 bom 369 379 ______O___O___ -1 -10.70 156.10 1002 -12.00 155.50 7 14 203
1948 SP EA 1948-03-20 00:00:00 TS -11.57 155.71 404 404 O_____P__OP___ jtwc_sh SH191948 -12.10 155.50 -1 -10.86 156.03 -10.90 156.00 TC 25 1002 -12.09 155.46 7 10 204
1948 SP EA 03:00:00 TS -11.94 155.53 444 444 P_____P__PP___ SH191948 -12.34 155.34 -1 -11.35 155.81 -11.37 155.80 TC -12.36 155.34 7 8 205
1948 SP EA 06:00:00 TS -12.29 155.37 489 489 O_____P__PP___ jtwc_sh SH191948 -12.60 155.20 -1 -11.83 155.60 -11.84 155.60 TC -12.64 155.22 7 8 203
1948 SP EA 09:00:00 TS -12.66 155.22 539 534 P_____P__PP___ SH191948 -12.89 155.10 -1 -12.30 155.39 -12.30 155.40 TC -12.91 155.09 7 8 201
1948 SP EA 11:00:00 TS -12.90 155.12 544 517 P_____P__PO___ SH191948 -13.10 155.04 -1 -12.61 155.26 -12.60 155.28 TC -13.10 155.00 7 15 228
1948 SP EA 12:00:00 TS -13.16 154.65 514 503 O_____P__PP___ jtwc_sh SH191948 -13.20 155.00 -1 -12.76 155.19 -12.75 155.22 TC -13.19 154.95 7 16 224
1948 SP EA 15:00:00 TS -13.68 154.34 523 523 P_____P__PP___ SH191948 -13.50 154.86 -1 -13.20 155.01 -13.19 155.04 TC -13.48 154.80 7 11 203
1948 SP EA 18:00:00 TS -14.20 154.20 554 554 O_____P__PP___ jtwc_sh SH191948 -13.80 154.70 -1 -13.63 154.84 -13.61 154.88 TC -13.78 154.65 7 10 190
1948 SP EA 21:00:00 TS -14.69 154.15 595 595 P_____P__PP___ SH191948 -14.09 154.55 -1 -14.04 154.69 -14.02 154.73 TC -14.09 154.50 7 9 0
1948 SP EA 23:00:00 TS -14.93 154.17 1000 bom 613 613 P_____O__PO___ SH191948 -14.29 154.45 -1 -14.30 154.60 1000 -14.27 154.64 TC -14.30 154.40 7 7 0
1948 SP EA 1948-03-21 00:00:00 TS -15.04 154.18 621 621 O_____P__OP___ jtwc_sh SH191948 -14.40 154.40 -1 -14.43 154.56 -14.40 154.60 TC 30 1000 -14.41 154.35 7 7 183
1948 SP EA 03:00:00 TS -15.37 154.15 657 651 P_____P__PP___ SH191948 -14.74 154.24 -1 -14.79 154.46 -14.76 154.49 TC -14.75 154.21 7 6 185
1948 SP EA 06:00:00 TS -15.67 154.11 679 679 O_____P__PP___ jtwc_sh SH191948 -15.10 154.10 -1 -15.13 154.37 -15.10 154.40 TC -15.10 154.09 7 6 185
1948 SP EA 09:00:00 TS -15.96 154.10 707 707 P_____P__PP___ SH191948 -15.44 153.99 -1 -15.46 154.30 -15.43 154.33 TC -15.46 153.97 7 6 182
1948 SP EA 11:00:00 TS -16.15 154.10 717 717 P_____P__PO___ SH191948 -15.68 153.93 -1 -15.67 154.25 -15.65 154.28 TC -15.70 153.90 7 6 0
1948 SP EA 12:00:00 TS -16.24 154.10 723 702 O_____P__PP___ jtwc_sh SH191948 -15.80 153.90 -1 -15.78 154.23 -15.76 154.26 TC -15.82 153.87 7 6 176
1948 SP EA 15:00:00 TS -16.56 154.10 695 675 P_____P__PP___ SH191948 -16.20 153.79 -1 -16.10 154.17 -16.08 154.20 TC -16.19 153.79 7 6 0
1948 SP EA 18:00:00 TS -16.88 154.11 675 656 O_____P__PP___ jtwc_sh SH191948 -16.60 153.70 -1 -16.43 154.11 -16.41 154.14 TC -16.56 153.73 7 6 176
1948 SP EA 21:00:00 TS -17.19 154.13 656 645 P_____P__PP___ SH191948 -16.95 153.66 -1 -16.77 154.05 -16.75 154.07 TC -16.94 153.66 7 6 177
1948 SP EA 23:00:00 TS -17.40 154.14 998 bom 645 639 P_____O__PO___ SH191948 -17.18 153.63 -1 -17.00 154.00 998 -16.98 154.03 TC -17.20 153.60 7 7 177
1948 SP EA 1948-03-22 00:00:00 TS -17.52 154.14 639 615 O_____P__OP___ jtwc_sh SH191948 -17.30 153.60 -1 -17.12 153.96 -17.10 154.00 TC 35 998 -17.33 153.56 7 8 183
1948 SP EA 03:00:00 TS -17.90 154.12 615 579 P_____P__PP___ SH191948 -17.69 153.46 -1 -17.50 153.85 -17.49 153.88 TC -17.73 153.44 7 8 184
1948 SP EA 06:00:00 TS -18.31 154.09 579 544 O_____P__PP___ jtwc_sh SH191948 -18.10 153.30 -1 -17.89 153.73 -17.89 153.76 TC -18.13 153.31 7 8 184
1948 SP EA 09:00:00 TS -18.71 154.06 544 512 P_____P__PP___ SH191948 -18.50 153.19 -1 -18.29 153.61 -18.31 153.63 TC -18.54 153.18 7 8 184
1948 SP EA 11:00:00 TS -18.99 154.04 512 503 P_____P__PO___ SH191948 -18.77 153.13 -1 -18.56 153.53 -18.59 153.55 TC -18.80 153.10 7 8 186
1948 SP EA 12:00:00 TS -19.12 154.02 503 471 O_____P__PP___ jtwc_sh SH191948 -18.90 153.10 -1 -18.70 153.49 -18.73 153.51 TC -18.93 153.07 7 8 188
1948 SP EA 15:00:00 TS -19.53 153.96 471 433 P_____P__PP___ SH191948 -19.31 152.99 -1 -19.12 153.37 -19.17 153.39 TC -19.30 152.98 7 8 189
1948 SP EA 18:00:00 TS -19.93 153.89 433 396 O_____P__PP___ jtwc_sh SH191948 -19.70 152.90 -1 -19.55 153.26 -19.61 153.27 TC -19.67 152.90 7 8 189
1948 SP EA 21:00:00 TS -20.30 153.83 396 382 P_____P__PP___ SH191948 -20.04 152.84 -1 -20.00 153.16 -20.05 153.18 TC -20.04 152.84 7 8 189
1948 SP EA 23:00:00 TS -20.56 153.79 994 bom 375 369 P_____O__PO___ SH191948 -20.27 152.81 -1 -20.30 153.10 994 -20.35 153.12 TC -20.30 152.80 7 8 187
1948 SP EA 1948-03-23 00:00:00 TS -20.69 153.77 369 337 O_____P__OP___ jtwc_sh SH191948 -20.40 152.80 -1 -20.46 153.07 -20.50 153.10 TC 40 994 -20.44 152.78 7 8 187
1948 SP EA 03:00:00 TS -21.10 153.72 337 319 P_____P__PP___ SH191948 -20.84 152.75 -1 -20.93 152.96 -20.97 153.02 TC -20.87 152.70 7 8 186
1948 SP EA 06:00:00 TS -21.52 153.68 319 295 O_____P__PP___ jtwc_sh SH191948 -21.30 152.70 -1 -21.42 152.88 -21.45 152.95 TC -21.31 152.65 7 8 185
1948 SP EA 09:00:00 TS -21.92 153.64 295 289 P_____P__PP___ SH191948 -21.71 152.64 -1 -21.90 152.81 -21.94 152.90 TC -21.73 152.61 7 8 183
1948 SP EA 11:00:00 TS -22.17 153.63 280 272 P_____P__PO___ SH191948 -21.98 152.61 -1 -22.23 152.79 -22.25 152.88 TC -22.00 152.60 7 7 182
1948 SP EA 12:00:00 TS -22.29 153.63 272 247 O_____P__PP___ jtwc_sh SH191948 -22.10 152.60 -1 -22.38 152.78 -22.41 152.87 TC -22.12 152.60 7 7 178
1948 SP EA 15:00:00 TS -22.63 153.66 249 238 P_____P__PP___ SH191948 -22.47 152.63 -1 -22.85 152.79 -22.87 152.87 TC -22.45 152.61 7 7 176
1948 SP EA 16:00:00 TS -22.74 153.67 bom 238 216 P_____O__PP___ SH191948 -22.58 152.66 -1 -23.00 152.80 -23.02 152.88 TC -22.55 152.63 7 7 171
1948 SP EA 18:00:00 TS -22.95 153.72 205 185 O_____P__PP___ jtwc_sh SH191948 -22.80 152.70 -1 -23.30 152.83 -23.31 152.91 TC -22.76 152.66 7 6 166
1948 SP EA 21:00:00 TS -23.24 153.80 185 164 P_____P__PP___ SH191948 -23.08 152.74 -1 -23.73 152.92 -23.72 152.98 TC -23.08 152.73 7 6 163
1948 SP EA 23:00:00 TS -23.44 153.88 997 bom 167 157 P_____O__PO___ SH191948 -23.29 152.77 -1 -24.00 153.00 997 -23.98 153.06 TC -23.30 152.80 7 6 161
1948 SP EA 1948-03-24 00:00:00 TS -23.54 153.92 157 123 O_____P__OP___ jtwc_sh SH191948 -23.40 152.80 -1 -24.12 153.03 -24.10 153.10 TC 35 997 -23.43 152.83 7 8 160
1948 SP EA 03:00:00 TS -23.91 154.07 129 106 P_____P__PP___ SH191948 -23.84 152.93 -1 -24.45 153.15 -24.43 153.27 TC -23.84 152.92 7 8 158
1948 SP EA 06:00:00 TS -24.28 154.24 106 106 O_____P__PP___ jtwc_sh SH191948 -24.30 153.10 -1 -24.73 153.28 -24.73 153.47 TC -24.25 153.05 7 8 154
1948 SP EA 09:00:00 TS -24.61 154.44 110 110 P_____P__PP___ SH191948 -24.68 153.29 -1 -24.97 153.46 -24.99 153.72 TC -24.65 153.24 7 7 149
1948 SP EA 11:00:00 TS -24.81 154.59 122 121 P_____P__PO___ SH191948 -24.90 153.43 -1 -25.11 153.60 -25.15 153.90 TC -24.90 153.40 7 7 145
1948 SP EA 12:00:00 TS -24.90 154.67 131 130 O_____P__PP___ jtwc_sh SH191948 -25.00 153.50 -1 -25.18 153.67 -25.23 154.00 TC -25.01 153.48 7 7 139
1948 SP EA 15:00:00 TS -25.15 154.91 152 152 P_____P__PP___ SH191948 -25.26 153.70 -1 -25.38 153.94 -25.44 154.30 TC -25.30 153.75 7 7 134
1948 SP EA 18:00:00 TS -25.38 155.21 186 186 O_____P__PP___ jtwc_sh SH191948 -25.50 154.00 -1 -25.57 154.28 -25.64 154.62 TC -25.57 154.11 7 8 126
1948 SP EA 21:00:00 TS -25.60 155.61 230 230 P_____P__PP___ SH191948 -25.80 154.48 -1 -25.76 154.68 -25.82 154.96 TC -25.83 154.55 7 9 120
1948 SP EA 23:00:00 TS -25.75 155.92 990 bom 266 266 P_____O__PO___ SH191948 -26.00 154.88 -1 -25.90 155.00 990 4 -25.94 155.19 TC -26.00 154.90 7 10 117
1948 SP EA 1948-03-25 00:00:00 TS -25.83 156.11 285 285 O_____P__OP___ jtwc_sh SH191948 -26.10 155.10 -1 -25.97 155.17 -26.00 155.30 TC 45 990 -26.09 155.09 7 11 116
1948 SP EA 03:00:00 TS -26.07 156.65 352 352 P_____P___P___ SH191948 -26.35 155.76 -1 -26.20 155.75 TC -26.37 155.75 7 11 117
1948 SP EA 06:00:00 TS -26.34 157.22 406 406 O_____P___P___ jtwc_sh SH191948 -26.60 156.50 -1 -26.45 156.39 TC -26.65 156.48 7 12 118
1948 SP EA 09:00:00 TS -26.63 157.84 451 451 P_____P___P___ SH191948 -26.90 157.29 -1 -26.71 157.11 TC -26.92 157.27 7 13 118
1948 SP EA 11:00:00 TS -26.82 158.26 488 485 P_____P___O___ SH191948 -27.10 157.83 -1 -26.89 157.62 TC -27.10 157.80 7 12 117
1948 SP EA 12:00:00 TS -26.91 158.45 494 494 O_____P___P___ jtwc_sh SH191948 -27.20 158.10 -1 -26.98 157.88 TC -27.18 158.06 7 10 115
1948 SP EA 15:00:00 TS -27.10 158.93 535 535 P_____P___P___ SH191948 -27.46 158.86 -1 -27.26 158.69 TC -27.41 158.87 7 9 113
1948 SP EA 18:00:00 TS -27.27 159.40 578 578 O_____P___P___ jtwc_sh SH191948 -27.70 159.60 -1 -27.54 159.54 TC -27.65 159.67 7 9 113
1948 SP EA 21:00:00 TS -27.47 159.91 623 623 P_____P___P___ SH191948 -27.93 160.37 -1 -27.82 160.41 TC -27.91 160.43 7 10 116
1948 SP MM 23:00:00 TS -27.64 160.28 998 bom 661 659 P_____O___O___ SH191948 -28.11 160.86 -1 -28.00 161.00 998 TC -28.10 160.90 7 11 120
1948 SP MM 1948-03-26 00:00:00 TS -27.75 160.46 679 678 O_________P___ jtwc_sh SH191948 -28.20 161.10 -1 -28.19 161.14 7 15 126
1948 SP MM 03:00:00 TS -28.23 161.19 743 742 P_________P___ SH191948 -28.52 161.80 -1 -28.49 161.81 7 17 129
1948 SP MM 06:00:00 TS -28.83 161.97 817 816 O_________P___ jtwc_sh SH191948 -28.90 162.40 -1 -28.85 162.40 7 18 133
1948 SP MM 09:00:00 TS -29.47 162.70 884 880 P_________P___ SH191948 -29.31 162.88 -1 -29.27 162.87 7 18 137
1948 SP MM 11:00:00 TS -29.92 163.14 910 910 P_________O___ SH191948 -29.63 163.11 -1 -29.60 163.10 7 18 141
1948 SP MM 12:00:00 TS -30.18 163.36 931 897 O_________P___ jtwc_sh SH191948 -29.80 163.20 -1 -29.78 163.19 7 19 143
1948 SP MM 15:00:00 TS -30.92 164.00 897 797 P_________P___ SH191948 -30.28 163.14 -1 -30.39 163.34 7 20 142
1948 SP MM 18:00:00 TS -31.73 164.78 789 676 O_________P___ jtwc_sh SH191948 -31.00 163.50 -1 -31.08 163.38 7 22 138
1948 SP MM 21:00:00 TS -32.55 165.73 676 604 P_________P___ SH191948 -32.10 164.98 -1 -31.80 163.35 7 23 134
1948 SP MM 23:00:00 TS -33.05 166.37 595 532 P_________O___ SH191948 -32.96 166.42 -1 -32.30 163.30 7 30 125
1948 SP MM 1948-03-27 00:00:00 TS -33.40 167.20 511 O_____________ jtwc_sh SH201948 -33.40 167.20 -1 7 46 117